Terminal Aerodrome Forecast
Issued by NWS

Home | Current Version | Previous Version | Graphics & Text | Print | Product List | Glossary On
Versions: 1 2 3 4 5 6 7 8 9 10 11 12 13
000
FTUS44 KLZK 291000 AAB
TAFLIT
TAF AMD
KLIT 291006Z 2910/3006 23013G22KT P6SM BKN120 WS020/24045KT
     FM291300 25010KT P6SM SCT120
     FM291700 34010G18KT P6SM SCT025
     FM292300 35012KT P6SM BKN025=

USA.gov is the U.S. government's official web portal to all federal, state and local government web resources and services.